Stony Rapids Airport
CYSF : rendu visible

Aérodrome :











RETROUVEZ-NOUS SUR...

 
LOGIN :

S'inscrire | Disclaimer

   EN    FR    IT 

 









Légende :    VFR   VFR Marginal   IFR   IFR Intensif   IFR Très Intensif
Visi : 
Plafond : 
>= 8 km
>= 3000ft
5 à 8 km
1000 à 3000 ft
1500m à 5 km
500 à 1000 ft
800 à 1500m
200 à 500 ft
< 800m
< 200 ft
Symboles :   Orages  Brouillard  Fortes neiges  Fortes précipitations  Vent > 20 kt






- Altitude de l'aérodrome : 805 ft
- Code IATA : YSF


CYSF - Stony Rapids

DERNIER METAR :
  • 100700Z AUTO 26005KT 9SM CLR M30/M34 A3014 RMK SLP250

METARs EXPIRÉS :
  • 100600Z AUTO 27006KT 9SM CLR M30/M34 A3013 RMK SLP245
  • 100500Z AUTO 26006KT 9SM BKN043 M29/M33 A3012 RMK SLP243
  • 100426Z AUTO VRB04KT 9SM CLR M29/M32 A3011 RMK SLP240

TAF TAF CYSF
Valide du 10 à 06h jusqu'au 10 à 18h UTC


100539Z 1006/1018 27006KT P6SM SCT040
TEMPO 1006/1008 BKN020
FM100800 30006KT P6SM SKC
TEMPO 1008/1018 3SM IC RMK FCST BASED ON AUTO OBS. NXT FCST BY 101200Z



MET'MAP, la Météo Aéronautique d'un coup d'oeil ! - Copyright ORBIFLY Décembre 2007 - Disclaimer

ORBIFLY MET'MAP TEAM :

Programmation & Développement : Alexandra Zaïnal
Sur une idée originale de : Baudouin d'Aumeries
Assistance à la programmation : Marc-Olivier Méhu
Soutien technique & logistique : Manuel Goepfert

Contact : metmap@orbifly.com




SOURCES & CREDITS :

   NOAA       Earth
Advisory